createdAt,value
2017-08-14T00:01:40.202Z,68.00
2017-08-14T00:04:06.602Z,67.70
2017-08-14T00:06:33.742Z,67.80
2017-08-14T00:09:00.887Z,68.00
2017-08-14T00:11:28.010Z,68.10
2017-08-14T00:13:54.474Z,67.60
2017-08-14T00:16:21.626Z,67.50
2017-08-14T00:18:48.775Z,67.30
2017-08-14T00:21:15.915Z,67.50
2017-08-14T00:23:43.066Z,67.20
2017-08-14T00:26:10.202Z,68.30
2017-08-14T00:28:36.609Z,67.60
2017-08-14T00:31:03.013Z,67.20
2017-08-14T00:33:29.411Z,67.30
2017-08-14T00:35:55.831Z,67.50
2017-08-14T00:38:22.227Z,67.60
2017-08-14T00:40:48.622Z,67.70
2017-08-14T00:43:15.758Z,68.20
2017-08-14T00:45:42.167Z,68.20
2017-08-14T00:48:08.605Z,68.40
2017-08-14T00:50:35.015Z,68.20
2017-08-14T00:53:01.499Z,67.90
2017-08-14T00:55:27.922Z,68.40
2017-08-14T00:57:54.338Z,68.50
2017-08-14T01:00:20.762Z,68.50
2017-08-14T01:02:47.177Z,68.20
2017-08-14T01:05:13.587Z,68.30
2017-08-14T01:07:39.989Z,68.50
2017-08-14T01:10:06.370Z,68.30
2017-08-14T01:12:32.786Z,67.40
2017-08-14T01:14:59.200Z,68.40
2017-08-14T01:17:26.334Z,68.00
2017-08-14T01:19:53.510Z,67.70
2017-08-14T01:22:19.947Z,67.70
2017-08-14T01:24:46.338Z,67.60
2017-08-14T01:27:12.768Z,67.70
2017-08-14T01:29:39.200Z,67.80
2017-08-14T01:32:05.607Z,68.50
2017-08-14T01:34:32.009Z,69.00
2017-08-14T01:36:58.401Z,68.50
2017-08-14T01:39:24.794Z,68.90
2017-08-14T01:41:51.179Z,68.90
2017-08-14T01:44:17.634Z,68.70
2017-08-14T01:46:44.025Z,68.70
2017-08-14T01:49:10.433Z,69.20
2017-08-14T01:51:36.835Z,69.10
2017-08-14T01:54:03.221Z,68.80
2017-08-14T01:56:32.950Z,68.70
2017-08-14T01:59:00.178Z,69.00
2017-08-14T02:01:26.602Z,69.00
2017-08-14T02:03:53.015Z,69.30
2017-08-14T02:06:19.425Z,69.60
2017-08-14T02:08:50.900Z,69.30
2017-08-14T02:11:17.298Z,69.70
2017-08-14T02:13:44.474Z,69.40
2017-08-14T02:16:10.869Z,69.40
2017-08-14T02:18:38.067Z,69.90
2017-08-14T02:21:04.479Z,69.80
2017-08-14T02:23:30.874Z,70.20
2017-08-14T02:25:57.266Z,70.50
2017-08-14T02:28:23.676Z,70.70
2017-08-14T02:30:50.131Z,70.60
2017-08-14T02:33:16.540Z,70.20
2017-08-14T02:35:42.914Z,70.10
2017-08-14T02:38:09.326Z,69.80
2017-08-14T02:40:35.760Z,70.10
2017-08-14T02:43:02.187Z,69.90
2017-08-14T02:45:28.606Z,69.90
2017-08-14T02:47:55.003Z,69.50
2017-08-14T02:50:21.411Z,69.30
2017-08-14T02:52:47.807Z,69.60
2017-08-14T02:55:14.246Z,69.80
2017-08-14T02:57:40.646Z,69.70
2017-08-14T03:02:31.086Z,69.50
2017-08-14T03:04:57.483Z,69.80
2017-08-14T03:07:23.934Z,70.00
2017-08-14T03:09:50.355Z,70.40
2017-08-14T03:12:17.507Z,71.30
2017-08-14T03:14:44.654Z,70.70
2017-08-14T03:17:11.809Z,71.10
2017-08-14T03:19:39.131Z,70.70
2017-08-14T03:22:05.506Z,70.60
2017-08-14T03:24:31.889Z,70.50
2017-08-14T03:26:58.293Z,70.70
2017-08-14T03:29:24.714Z,70.70
2017-08-14T03:31:51.110Z,70.90
2017-08-14T03:34:18.259Z,71.50
2017-08-14T03:36:45.419Z,71.10
2017-08-14T03:39:12.560Z,70.70
2017-08-14T03:41:38.971Z,70.70
2017-08-14T03:44:05.402Z,70.50
2017-08-14T03:46:31.806Z,69.90
2017-08-14T03:48:58.235Z,69.70
2017-08-14T03:51:24.669Z,70.20
2017-08-14T03:53:51.084Z,70.70
2017-08-14T03:56:17.498Z,70.50
2017-08-14T03:58:44.655Z,70.40
2017-08-14T04:01:11.093Z,70.40
2017-08-14T04:03:37.874Z,69.90
2017-08-14T04:06:04.313Z,70.40
2017-08-14T04:08:30.737Z,70.60
2017-08-14T04:10:57.122Z,70.50
2017-08-14T04:13:24.255Z,70.50
2017-08-14T04:15:50.662Z,70.50
2017-08-14T04:18:17.078Z,70.50
2017-08-14T04:20:48.060Z,70.60
2017-08-14T04:23:15.500Z,70.90
2017-08-14T04:25:42.286Z,71.00
2017-08-14T04:28:08.675Z,71.30
2017-08-14T04:30:35.079Z,71.00
2017-08-14T04:33:01.487Z,71.10
2017-08-14T04:35:27.909Z,70.70
2017-08-14T04:37:55.122Z,70.50
2017-08-14T04:40:21.522Z,70.50
2017-08-14T04:42:47.990Z,70.20
2017-08-14T04:45:14.431Z,71.40
2017-08-14T04:47:40.822Z,71.40
2017-08-14T04:50:07.239Z,71.60
2017-08-14T04:52:33.646Z,71.70
2017-08-14T04:55:00.799Z,72.20
2017-08-14T04:57:27.922Z,71.60
2017-08-14T04:59:54.331Z,71.60
2017-08-14T05:02:20.734Z,72.00
2017-08-14T05:04:47.342Z,71.90
2017-08-14T05:07:13.870Z,72.20
2017-08-14T05:09:40.275Z,71.70
2017-08-14T05:12:06.687Z,72.00
2017-08-14T05:14:33.082Z,72.30
2017-08-14T05:17:00.233Z,73.10
2017-08-14T05:19:27.374Z,72.40
2017-08-14T05:21:53.770Z,72.30
2017-08-14T05:24:20.162Z,72.40
2017-08-14T05:26:46.597Z,72.30
2017-08-14T05:29:13.014Z,72.20
2017-08-14T05:31:40.161Z,72.60
2017-08-14T05:34:07.282Z,72.30
2017-08-14T05:36:33.691Z,72.30
2017-08-14T05:39:00.116Z,72.60
2017-08-14T05:41:26.561Z,72.50
2017-08-14T05:43:53.275Z,72.30
2017-08-14T05:46:19.694Z,72.50
2017-08-14T05:48:46.094Z,72.80
2017-08-14T05:51:12.515Z,72.70
2017-08-14T05:53:38.906Z,72.60
2017-08-14T05:56:05.295Z,72.00
2017-08-14T05:58:31.722Z,70.70
2017-08-14T06:00:58.155Z,71.40
2017-08-14T06:03:24.566Z,71.00
2017-08-14T06:05:50.960Z,70.50
2017-08-14T06:08:17.383Z,70.30
2017-08-14T06:10:44.540Z,68.90
2017-08-14T06:13:12.019Z,68.90
2017-08-14T06:15:38.431Z,69.20
2017-08-14T06:18:05.216Z,67.90
2017-08-14T06:20:31.615Z,67.50
2017-08-14T06:22:58.026Z,66.30
2017-08-14T06:25:25.152Z,62.70
2017-08-14T06:27:51.558Z,62.50
2017-08-14T06:30:17.978Z,60.60
2017-08-14T06:32:51.494Z,59.80
2017-08-14T06:35:17.897Z,58.30
2017-08-14T06:37:44.295Z,56.70
2017-08-14T06:40:10.687Z,56.90
2017-08-14T06:42:37.086Z,55.20
2017-08-14T06:45:03.517Z,55.40
2017-08-14T06:47:29.952Z,54.20
2017-08-14T06:49:56.365Z,54.40
2017-08-14T06:52:23.505Z,54.40
2017-08-14T06:54:49.894Z,54.40
2017-08-14T06:57:16.292Z,54.00
2017-08-14T06:59:42.691Z,53.70
2017-08-14T07:02:09.095Z,53.30
2017-08-14T07:04:35.498Z,53.30
2017-08-14T07:07:01.895Z,53.50
2017-08-14T07:09:28.314Z,54.30
2017-08-14T07:11:54.714Z,53.10
2017-08-14T07:14:21.262Z,53.60
2017-08-14T07:16:47.630Z,54.40
2017-08-14T07:19:14.070Z,54.30
2017-08-14T07:21:40.493Z,55.00
2017-08-14T07:24:06.882Z,53.90
2017-08-14T07:26:33.282Z,54.70
2017-08-14T07:29:00.440Z,54.40
2017-08-14T07:31:26.845Z,54.40
2017-08-14T07:33:53.251Z,54.40
2017-08-14T07:36:19.662Z,54.00
2017-08-14T07:38:46.058Z,53.60
2017-08-14T07:41:13.235Z,53.00
2017-08-14T07:43:39.630Z,52.90
2017-08-14T07:46:06.772Z,50.80
2017-08-14T07:48:38.942Z,50.70
2017-08-14T07:51:05.347Z,50.60
2017-08-14T07:53:31.759Z,50.40
2017-08-14T07:55:58.173Z,50.90
2017-08-14T07:58:24.578Z,50.10
2017-08-14T08:00:51.753Z,51.00
2017-08-14T08:03:18.174Z,51.00
2017-08-14T08:05:44.596Z,50.40
2017-08-14T08:08:11.734Z,49.40
2017-08-14T08:10:38.154Z,48.70
2017-08-14T08:13:04.554Z,47.60
2017-08-14T08:15:30.950Z,47.10
2017-08-14T08:17:58.132Z,48.20
2017-08-14T08:20:24.538Z,47.70
2017-08-14T08:22:51.826Z,47.50
2017-08-14T08:25:18.242Z,47.50
2017-08-14T08:27:44.671Z,48.40
2017-08-14T08:30:11.097Z,47.90
2017-08-14T08:32:37.498Z,47.50
2017-08-14T08:35:03.887Z,47.10
2017-08-14T08:37:30.703Z,46.50
2017-08-14T08:39:57.114Z,45.80
2017-08-14T08:42:23.514Z,46.30
2017-08-14T08:44:49.935Z,46.20
2017-08-14T08:47:16.349Z,46.80
2017-08-14T08:49:42.726Z,47.70
2017-08-14T08:52:09.165Z,46.20
2017-08-14T08:54:35.594Z,45.90
2017-08-14T08:57:02.022Z,45.30
2017-08-14T08:59:28.410Z,46.40
2017-08-14T09:01:54.811Z,46.90
2017-08-14T09:04:21.215Z,44.80
2017-08-14T09:06:51.864Z,45.10
2017-08-14T09:09:18.259Z,46.90
2017-08-14T09:11:44.655Z,47.00
2017-08-14T09:14:11.852Z,45.70
2017-08-14T09:16:38.252Z,45.70
2017-08-14T09:19:04.639Z,43.70
2017-08-14T09:21:31.042Z,44.40
2017-08-14T09:23:57.446Z,42.30
2017-08-14T09:26:23.866Z,42.70
2017-08-14T09:28:50.993Z,42.50
2017-08-14T09:31:17.383Z,42.10
2017-08-14T09:33:43.798Z,40.70
2017-08-14T09:36:10.184Z,41.60
2017-08-14T09:38:36.602Z,41.40
2017-08-14T09:41:03.026Z,42.00
2017-08-14T09:43:29.431Z,41.50
2017-08-14T09:45:55.807Z,41.90
2017-08-14T09:48:22.203Z,42.60
2017-08-14T09:50:48.598Z,44.00
2017-08-14T09:53:15.746Z,44.00
2017-08-14T09:55:42.916Z,43.00
2017-08-14T09:58:10.074Z,41.40
2017-08-14T10:00:36.493Z,41.40
2017-08-14T10:03:03.638Z,43.90
2017-08-14T10:05:30.846Z,41.50
2017-08-14T10:07:57.238Z,41.50
2017-08-14T10:10:23.627Z,42.60
2017-08-14T10:12:50.039Z,42.50
2017-08-14T10:15:16.470Z,41.40
2017-08-14T10:17:45.563Z,41.00
2017-08-14T10:20:12.302Z,39.80
2017-08-14T10:22:38.726Z,42.50
2017-08-14T10:25:05.146Z,42.60
2017-08-14T10:27:31.568Z,43.00
2017-08-14T10:29:57.978Z,41.60
2017-08-14T10:32:24.380Z,40.60
2017-08-14T10:34:50.781Z,41.70
2017-08-14T10:37:17.186Z,41.80
2017-08-14T10:39:48.333Z,43.60
2017-08-14T10:42:14.767Z,43.60
2017-08-14T10:44:41.914Z,43.60
2017-08-14T10:47:09.063Z,43.60
2017-08-14T10:49:36.218Z,43.60
2017-08-14T10:52:12.439Z,43.60
2017-08-14T10:54:39.913Z,43.50
2017-08-14T10:57:06.310Z,43.40
2017-08-14T10:59:32.714Z,43.60
2017-08-14T11:01:59.110Z,43.30
2017-08-14T11:04:25.566Z,43.20
2017-08-14T11:06:51.998Z,43.20
2017-08-14T11:09:19.164Z,43.50
2017-08-14T11:11:45.576Z,43.50
2017-08-14T11:14:12.711Z,44.00
2017-08-14T11:16:39.114Z,43.30
2017-08-14T11:19:05.512Z,42.40
2017-08-14T11:21:31.923Z,43.10
2017-08-14T11:23:58.327Z,43.20
2017-08-14T11:26:24.712Z,42.70
2017-08-14T11:28:51.099Z,42.60
2017-08-14T11:31:17.502Z,42.10
2017-08-14T11:33:43.906Z,40.90
2017-08-14T11:36:11.047Z,40.80
2017-08-14T11:38:38.199Z,39.20
2017-08-14T11:41:05.335Z,40.20
2017-08-14T11:43:32.513Z,40.60
2017-08-14T11:45:58.916Z,40.60
2017-08-14T11:48:25.319Z,39.40
2017-08-14T11:50:51.736Z,37.80
2017-08-14T11:53:18.151Z,38.20
2017-08-14T11:55:44.546Z,39.50
2017-08-14T11:58:10.929Z,38.40
2017-08-14T12:00:37.363Z,38.60
2017-08-14T12:03:03.773Z,39.50
2017-08-14T12:05:30.204Z,40.00
2017-08-14T12:07:56.603Z,39.50
2017-08-14T12:10:23.010Z,39.60
2017-08-14T12:12:49.411Z,38.50
2017-08-14T12:15:15.791Z,37.20
2017-08-14T12:17:42.179Z,36.60
2017-08-14T12:20:08.618Z,36.90
2017-08-14T12:22:35.035Z,36.90
2017-08-14T12:25:01.491Z,36.80
2017-08-14T12:27:27.910Z,36.40
2017-08-14T12:29:54.330Z,36.60
2017-08-14T12:32:20.707Z,36.70
2017-08-14T12:34:47.106Z,37.10
2017-08-14T12:37:13.511Z,38.20
2017-08-14T12:39:40.626Z,39.40
2017-08-14T12:42:07.601Z,39.40
2017-08-14T12:44:34.601Z,38.20
2017-08-14T12:47:01.002Z,40.10
2017-08-14T12:49:27.395Z,39.70
2017-08-14T12:51:53.787Z,39.00
2017-08-14T12:54:20.183Z,38.80
2017-08-14T12:56:47.323Z,38.90
2017-08-14T12:59:14.459Z,38.10
2017-08-14T13:01:40.854Z,37.80
2017-08-14T13:04:11.875Z,37.50
2017-08-14T13:06:39.017Z,38.40
2017-08-14T13:09:05.435Z,38.40
2017-08-14T13:11:32.619Z,37.00
2017-08-14T13:13:59.023Z,37.00
2017-08-14T13:16:26.174Z,36.90
2017-08-14T13:18:53.319Z,37.10
2017-08-14T13:21:20.505Z,37.20
2017-08-14T13:23:46.898Z,37.20
2017-08-14T13:26:14.051Z,37.50
2017-08-14T13:28:45.266Z,38.40
2017-08-14T13:31:11.649Z,38.40
2017-08-14T13:33:38.087Z,36.90
2017-08-14T13:36:04.471Z,36.80
2017-08-14T13:38:30.846Z,36.90
2017-08-14T13:40:57.267Z,37.10
2017-08-14T13:43:24.434Z,37.90
2017-08-14T13:45:50.822Z,37.90
2017-08-14T13:48:17.222Z,37.80
2017-08-14T13:50:49.843Z,38.30
2017-08-14T13:53:16.239Z,38.40
2017-08-14T13:55:42.618Z,38.50
2017-08-14T13:58:09.006Z,39.60
2017-08-14T14:00:35.403Z,39.60
2017-08-14T14:03:02.759Z,39.30
2017-08-14T14:05:29.148Z,39.20
2017-08-14T14:07:55.561Z,39.10
2017-08-14T14:10:21.962Z,39.20
2017-08-14T14:12:48.376Z,39.30
2017-08-14T14:15:15.514Z,39.70
2017-08-14T14:17:45.135Z,39.60
2017-08-14T14:20:13.146Z,40.10
2017-08-14T14:22:39.533Z,40.30
2017-08-14T14:25:06.656Z,39.40
2017-08-14T14:27:33.074Z,39.40
2017-08-14T14:29:59.470Z,39.30
2017-08-14T14:32:25.887Z,38.90
2017-08-14T14:34:52.309Z,38.20
2017-08-14T14:37:19.471Z,39.00
2017-08-14T14:39:53.356Z,38.90
2017-08-14T14:42:19.754Z,38.90
2017-08-14T14:44:46.173Z,38.00
2017-08-14T14:47:12.583Z,38.30
2017-08-14T14:49:38.981Z,38.70
2017-08-14T14:52:05.371Z,36.80
2017-08-14T14:54:31.767Z,37.70
2017-08-14T14:56:58.938Z,36.80
2017-08-14T14:59:25.355Z,36.60
2017-08-14T15:01:52.895Z,36.90
2017-08-14T15:04:19.306Z,36.60
2017-08-14T15:06:45.721Z,36.40
2017-08-14T15:09:12.099Z,36.40
2017-08-14T15:11:38.557Z,35.70
2017-08-14T15:14:04.949Z,36.20
2017-08-14T15:16:31.358Z,36.20
2017-08-14T15:18:57.756Z,36.70
2017-08-14T15:21:24.139Z,36.20
2017-08-14T15:23:50.553Z,37.40
2017-08-14T15:26:16.940Z,36.90
2017-08-14T15:28:44.127Z,36.30
2017-08-14T15:31:10.637Z,36.40
2017-08-14T15:33:37.034Z,36.50
2017-08-14T15:36:03.431Z,37.20
2017-08-14T15:38:29.839Z,37.00
2017-08-14T15:40:56.218Z,36.20
2017-08-14T15:43:22.669Z,36.10
2017-08-14T15:45:49.153Z,37.30
2017-08-14T15:48:15.560Z,35.90
2017-08-14T15:50:42.722Z,35.80
2017-08-14T15:53:14.313Z,35.80
2017-08-14T15:55:40.718Z,36.20
2017-08-14T15:58:07.132Z,36.80
2017-08-14T16:00:34.322Z,36.40
2017-08-14T16:03:00.746Z,36.40
2017-08-14T16:05:27.135Z,36.40
2017-08-14T16:07:53.514Z,36.70
2017-08-14T16:10:19.895Z,36.60
2017-08-14T16:12:47.017Z,37.00
2017-08-14T16:15:13.415Z,37.00
2017-08-14T16:17:39.823Z,36.50
2017-08-14T16:20:08.000Z,37.00
2017-08-14T16:22:34.662Z,37.00
2017-08-14T16:25:01.106Z,37.20
2017-08-14T16:27:27.531Z,37.00
2017-08-14T16:29:53.918Z,36.80
2017-08-14T16:32:20.322Z,36.10
2017-08-14T16:34:46.738Z,36.80
2017-08-14T16:37:13.175Z,36.80
2017-08-14T16:39:54.479Z,36.60
2017-08-14T16:42:42.809Z,36.40
2017-08-14T16:45:09.211Z,36.40
2017-08-14T16:47:43.415Z,36.20
2017-08-14T16:50:25.487Z,36.50
2017-08-14T16:52:55.995Z,36.50
2017-08-14T16:55:23.394Z,36.80
2017-08-14T16:57:50.547Z,36.30
2017-08-14T17:00:22.702Z,36.00
2017-08-14T17:02:49.602Z,36.10
2017-08-14T17:05:16.020Z,36.50
2017-08-14T17:07:42.402Z,36.50
2017-08-14T17:10:08.806Z,36.40
2017-08-14T17:12:35.217Z,36.60
2017-08-14T17:15:03.455Z,36.80
2017-08-14T17:17:30.611Z,36.70
2017-08-14T17:19:57.799Z,37.10
2017-08-14T17:22:24.225Z,37.10
2017-08-14T17:24:50.606Z,37.10
2017-08-14T17:27:17.027Z,37.60
2017-08-14T17:29:43.443Z,37.50
2017-08-14T17:32:09.875Z,37.40
2017-08-14T17:34:36.278Z,37.50
2017-08-14T17:37:02.693Z,37.90
2017-08-14T17:39:29.886Z,38.20
2017-08-14T17:42:01.624Z,38.30
2017-08-14T17:44:28.018Z,38.40
2017-08-14T17:46:54.426Z,38.70
2017-08-14T17:49:20.839Z,38.90
2017-08-14T17:51:47.255Z,39.20
2017-08-14T17:54:13.643Z,39.20
2017-08-14T17:56:40.025Z,39.30
2017-08-14T17:59:06.731Z,39.50
2017-08-14T18:01:33.882Z,40.30
2017-08-14T18:04:00.299Z,39.70
2017-08-14T18:06:26.690Z,40.00
2017-08-14T18:08:53.119Z,40.20
2017-08-14T18:11:19.526Z,40.30
2017-08-14T18:13:46.686Z,40.90
2017-08-14T18:16:13.086Z,40.90
2017-08-14T18:18:39.490Z,40.90
2017-08-14T18:21:05.897Z,41.00
2017-08-14T18:23:32.293Z,41.30
2017-08-14T18:25:58.681Z,41.60
2017-08-14T18:28:25.110Z,41.90
2017-08-14T18:30:51.503Z,42.10
2017-08-14T18:33:18.665Z,43.10
2017-08-14T18:35:45.098Z,43.10
2017-08-14T18:38:11.515Z,43.20
2017-08-14T18:40:38.678Z,43.50
2017-08-14T18:43:05.170Z,43.10
2017-08-14T18:45:31.590Z,43.20
2017-08-14T18:47:58.011Z,43.40
2017-08-14T18:50:24.423Z,43.50
2017-08-14T18:52:50.826Z,43.80
2017-08-14T18:55:17.514Z,43.80
2017-08-14T18:57:43.934Z,43.90
2017-08-14T19:00:10.314Z,44.00
2017-08-14T19:02:36.744Z,44.20
2017-08-14T19:05:03.130Z,44.60
2017-08-14T19:07:29.967Z,44.80
2017-08-14T19:09:56.466Z,45.00
2017-08-14T19:12:22.462Z,45.00
2017-08-14T19:14:48.866Z,44.90
2017-08-14T19:17:15.315Z,45.10
2017-08-14T19:19:41.727Z,45.20
2017-08-14T19:22:08.134Z,45.00
2017-08-14T19:24:35.272Z,45.60
2017-08-14T19:27:01.682Z,45.00
2017-08-14T19:29:28.078Z,45.00
2017-08-14T19:31:54.464Z,44.90
2017-08-14T19:34:20.868Z,45.00
2017-08-14T19:36:47.288Z,44.90
2017-08-14T19:39:13.723Z,44.90
2017-08-14T19:41:40.131Z,45.00
2017-08-14T19:44:06.550Z,45.00
2017-08-14T19:46:33.694Z,45.10
2017-08-14T19:49:00.850Z,45.00
2017-08-14T19:51:28.019Z,45.20
2017-08-14T19:53:54.419Z,45.10
2017-08-14T19:56:20.857Z,45.20
2017-08-14T19:58:48.023Z,45.50
2017-08-14T20:01:14.418Z,45.50
2017-08-14T20:03:40.862Z,45.40
2017-08-14T20:06:07.302Z,45.40
2017-08-14T20:08:33.746Z,45.50
2017-08-14T20:11:00.895Z,46.20
2017-08-14T20:13:28.030Z,46.20
2017-08-14T20:15:54.442Z,46.20
2017-08-14T20:18:20.866Z,46.00
2017-08-14T20:20:47.274Z,46.00
2017-08-14T20:23:13.697Z,46.20
2017-08-14T20:25:40.123Z,46.20
2017-08-14T20:28:06.513Z,46.20
2017-08-14T20:30:32.959Z,46.30
2017-08-14T20:32:59.351Z,46.50
2017-08-14T20:35:25.734Z,46.60
2017-08-14T20:37:52.900Z,46.70
2017-08-14T20:40:20.058Z,46.90
2017-08-14T20:42:46.442Z,46.90
2017-08-14T20:45:12.875Z,46.90
2017-08-14T20:47:39.282Z,47.00
2017-08-14T20:50:05.708Z,46.90
2017-08-14T20:52:32.074Z,46.90
2017-08-14T20:54:58.478Z,46.90
2017-08-14T20:57:24.868Z,46.90
2017-08-14T20:59:52.028Z,47.10
2017-08-14T21:02:18.451Z,47.10
2017-08-14T21:04:45.619Z,47.70
2017-08-14T21:07:12.030Z,47.70
2017-08-14T21:09:39.154Z,48.40
2017-08-14T21:12:05.621Z,48.50
2017-08-14T21:14:32.765Z,48.90
2017-08-14T21:16:59.903Z,49.20
2017-08-14T21:19:27.110Z,49.50
2017-08-14T21:21:55.246Z,49.40
2017-08-14T21:24:22.394Z,49.60
2017-08-14T21:26:49.539Z,49.80
2017-08-14T21:29:16.695Z,50.30
2017-08-14T21:31:43.111Z,50.30
2017-08-14T21:34:09.505Z,50.40
2017-08-14T21:36:35.891Z,50.60
2017-08-14T21:39:03.107Z,51.30
2017-08-14T21:41:29.536Z,51.30
2017-08-14T21:43:55.956Z,51.30
2017-08-14T21:46:22.379Z,51.40
2017-08-14T21:48:51.651Z,51.70
2017-08-14T21:51:19.811Z,51.90
2017-08-14T21:53:46.948Z,51.70
2017-08-14T21:56:13.344Z,52.10
2017-08-14T21:58:39.740Z,52.20
2017-08-14T22:01:06.152Z,52.50
2017-08-14T22:03:33.359Z,53.40
2017-08-14T22:05:59.787Z,52.70
2017-08-14T22:08:26.203Z,52.80
2017-08-14T22:10:52.614Z,53.10
2017-08-14T22:13:19.772Z,53.60
2017-08-14T22:15:46.174Z,53.60
2017-08-14T22:18:12.583Z,54.00
2017-08-14T22:20:39.029Z,54.20
2017-08-14T22:23:08.844Z,54.10
2017-08-14T22:25:35.256Z,54.50
2017-08-14T22:28:02.831Z,54.20
2017-08-14T22:30:29.207Z,54.60
2017-08-14T22:33:00.643Z,54.80
2017-08-14T22:35:27.794Z,55.50
2017-08-14T22:37:54.930Z,55.50
2017-08-14T22:40:21.335Z,55.50
2017-08-14T22:42:47.752Z,55.60
2017-08-14T22:45:14.142Z,55.30
2017-08-14T22:47:41.331Z,55.80
2017-08-14T22:50:16.804Z,55.40
2017-08-14T22:52:44.231Z,55.20
2017-08-14T22:55:10.642Z,55.40
2017-08-14T22:57:37.048Z,55.30
2017-08-14T23:00:04.206Z,55.40
2017-08-14T23:02:31.368Z,55.20
2017-08-14T23:04:57.770Z,55.10
2017-08-14T23:07:24.325Z,55.50
2017-08-14T23:09:51.471Z,55.50
2017-08-14T23:12:18.623Z,55.50
2017-08-14T23:14:51.386Z,55.60
2017-08-14T23:17:17.786Z,55.60
2017-08-14T23:19:44.204Z,55.90
2017-08-14T23:22:10.616Z,56.10
2017-08-14T23:24:37.774Z,56.10
2017-08-14T23:27:04.155Z,56.00
2017-08-14T23:29:30.558Z,56.30
2017-08-14T23:31:56.986Z,56.40
2017-08-14T23:34:23.361Z,56.50
2017-08-14T23:36:49.734Z,56.40
2017-08-14T23:39:16.146Z,56.90
2017-08-14T23:41:43.303Z,58.10
2017-08-14T23:44:10.438Z,57.90
2017-08-14T23:46:36.830Z,57.90
2017-08-14T23:49:03.229Z,58.40
2017-08-14T23:51:29.625Z,58.90
2017-08-14T23:53:56.056Z,59.00
2017-08-14T23:56:22.462Z,59.30
2017-08-14T23:58:48.858Z,59.70
